createdAt,value
2023-03-24T00:00:21.910Z,12.13
2023-03-24T00:02:49.271Z,12.15
2023-03-24T00:05:18.883Z,12.11
2023-03-24T00:07:46.684Z,12.09
2023-03-24T00:10:18.293Z,11.98
2023-03-24T00:12:46.770Z,11.96
2023-03-24T00:15:19.168Z,11.93
2023-03-24T00:17:50.666Z,11.90
2023-03-24T00:20:20.497Z,11.87
2023-03-24T00:22:51.511Z,11.85
2023-03-24T00:25:20.811Z,11.86
2023-03-24T00:27:49.085Z,11.85
2023-03-24T00:30:17.739Z,11.86
2023-03-24T00:32:46.449Z,11.76
2023-03-24T00:35:16.821Z,11.79
2023-03-24T00:37:45.780Z,11.72
2023-03-24T00:40:16.671Z,11.67
2023-03-24T00:42:46.091Z,11.62
2023-03-24T00:45:20.072Z,11.63
2023-03-24T00:47:50.495Z,11.65
2023-03-24T00:50:19.029Z,11.54
2023-03-24T00:52:48.384Z,11.58
2023-03-24T00:55:16.997Z,11.60
2023-03-24T00:57:50.613Z,11.56
2023-03-24T01:00:21.310Z,11.54
2023-03-24T01:02:54.053Z,11.53
2023-03-24T01:05:23.049Z,11.50
2023-03-24T01:07:52.261Z,11.57
2023-03-24T01:10:26.858Z,11.54
2023-03-24T01:12:57.222Z,11.60
2023-03-24T01:15:26.690Z,11.65
2023-03-24T01:17:54.547Z,11.64
2023-03-24T01:20:23.918Z,11.74
2023-03-24T01:22:51.464Z,11.77
2023-03-24T01:25:22.851Z,11.79
2023-03-24T01:27:51.337Z,11.84
2023-03-24T01:30:23.024Z,11.90
2023-03-24T01:32:50.639Z,11.88
2023-03-24T01:35:18.020Z,11.88
2023-03-24T01:37:45.555Z,12.02
2023-03-24T01:40:23.310Z,12.02
2023-03-24T01:42:51.405Z,11.97
2023-03-24T01:45:40.144Z,12.00
2023-03-24T01:48:11.245Z,12.00
2023-03-24T01:50:38.647Z,11.98
2023-03-24T01:53:06.337Z,11.99
2023-03-24T01:55:33.319Z,12.00
2023-03-24T01:58:03.014Z,12.01
2023-03-24T02:00:42.221Z,12.02
2023-03-24T02:03:40.357Z,12.03
2023-03-24T02:06:08.946Z,12.03
2023-03-24T02:08:39.297Z,12.10
2023-03-24T02:11:06.361Z,12.12
2023-03-24T02:13:42.753Z,12.15
2023-03-24T02:16:28.449Z,12.13
2023-03-24T02:19:15.048Z,12.15
2023-03-24T02:21:48.034Z,12.16
2023-03-24T02:24:29.947Z,12.20
2023-03-24T02:27:07.123Z,12.22
2023-03-24T02:29:55.144Z,12.24
2023-03-24T02:32:51.271Z,12.23
2023-03-24T02:35:37.779Z,12.29
2023-03-24T02:38:04.568Z,12.28
2023-03-24T02:40:36.158Z,12.24
2023-03-24T02:43:21.431Z,12.19
2023-03-24T02:46:13.944Z,12.14
2023-03-24T02:49:10.082Z,12.15
2023-03-24T02:51:44.197Z,12.10
2023-03-24T02:54:19.606Z,12.11
2023-03-24T02:56:58.013Z,12.14
2023-03-24T02:59:43.640Z,12.13
2023-03-24T03:02:39.734Z,12.16
2023-03-24T03:05:14.071Z,12.23
2023-03-24T03:07:44.682Z,12.31
2023-03-24T03:10:15.461Z,12.43
2023-03-24T03:12:44.388Z,12.49
2023-03-24T03:15:16.806Z,12.45
2023-03-24T03:17:53.373Z,12.43
2023-03-24T03:20:24.515Z,12.46
2023-03-24T03:23:00.090Z,12.50
2023-03-24T03:25:31.154Z,12.57
2023-03-24T03:28:02.415Z,12.52
2023-03-24T03:30:34.292Z,12.58
2023-03-24T03:33:06.697Z,12.62
2023-03-24T03:35:42.073Z,12.68
2023-03-24T03:38:29.157Z,12.65
2023-03-24T03:40:59.743Z,12.72
2023-03-24T03:43:33.655Z,12.69
2023-03-24T03:46:02.019Z,12.73
2023-03-24T03:48:34.438Z,12.72
2023-03-24T03:51:12.883Z,12.79
2023-03-24T03:54:11.370Z,12.76
2023-03-24T03:56:39.003Z,12.82
2023-03-24T03:59:34.374Z,12.75
2023-03-24T04:02:39.042Z,12.76
2023-03-24T04:05:26.319Z,12.77
2023-03-24T04:08:15.491Z,12.76
2023-03-24T04:11:22.158Z,12.69
2023-03-24T04:15:02.343Z,12.73
2023-03-24T04:17:53.233Z,12.94
2023-03-24T04:20:50.297Z,12.89
2023-03-24T04:23:31.155Z,12.94
2023-03-24T04:26:26.446Z,12.96
2023-03-24T04:29:09.289Z,13.15
2023-03-24T04:31:44.483Z,13.27
2023-03-24T04:34:41.534Z,13.27
2023-03-24T04:37:27.161Z,13.26
2023-03-24T04:40:05.488Z,13.30
2023-03-24T04:42:39.450Z,13.35
2023-03-24T04:45:07.172Z,13.37
2023-03-24T04:47:51.154Z,13.43
2023-03-24T04:50:53.344Z,13.46
2023-03-24T04:53:20.650Z,13.41
2023-03-24T04:55:50.475Z,13.35
2023-03-24T04:58:28.326Z,13.34
2023-03-24T05:00:56.706Z,13.38
2023-03-24T05:03:24.359Z,13.38
2023-03-24T05:05:52.541Z,13.38
2023-03-24T05:08:20.617Z,13.36
2023-03-24T05:10:48.630Z,13.34
2023-03-24T05:13:15.999Z,13.28
2023-03-24T05:15:49.931Z,13.28
2023-03-24T05:18:28.404Z,13.27
2023-03-24T05:20:57.075Z,13.28
2023-03-24T05:23:24.078Z,13.24
2023-03-24T05:25:51.442Z,13.31
2023-03-24T05:28:21.222Z,13.34
2023-03-24T05:30:48.342Z,13.39
2023-03-24T05:33:50.570Z,13.30
2023-03-24T05:36:20.540Z,13.29
2023-03-24T05:38:54.638Z,13.24
2023-03-24T05:41:23.711Z,13.27
2023-03-24T05:43:50.509Z,13.24
2023-03-24T05:46:17.975Z,13.34
2023-03-24T05:48:47.080Z,13.22
2023-03-24T05:51:19.604Z,13.24
2023-03-24T05:53:52.759Z,13.27
2023-03-24T05:56:24.360Z,13.22
2023-03-24T05:59:00.404Z,13.35
2023-03-24T06:02:05.976Z,13.36
2023-03-24T06:04:46.785Z,13.38
2023-03-24T06:07:16.796Z,13.42
2023-03-24T06:09:51.136Z,13.41
2023-03-24T06:12:18.810Z,13.44
2023-03-24T06:14:53.965Z,13.49
2023-03-24T06:17:21.739Z,13.52
2023-03-24T06:19:52.013Z,13.43
2023-03-24T06:22:39.025Z,13.44
2023-03-24T06:25:16.772Z,13.45
2023-03-24T06:27:52.198Z,13.40
2023-03-24T06:30:22.412Z,13.40
2023-03-24T06:32:49.083Z,13.44
2023-03-24T06:35:17.700Z,13.47
2023-03-24T06:37:52.726Z,13.53
2023-03-24T06:40:19.760Z,13.50
2023-03-24T06:42:52.125Z,13.49
2023-03-24T06:45:18.937Z,13.47
2023-03-24T06:47:47.922Z,13.50
2023-03-24T06:50:14.954Z,13.50
2023-03-24T06:52:42.054Z,13.47
2023-03-24T06:55:11.277Z,13.50
2023-03-24T06:57:38.042Z,13.53
2023-03-24T07:00:23.607Z,13.53
2023-03-24T07:03:14.374Z,13.58
2023-03-24T07:05:45.827Z,13.62
2023-03-24T07:10:48.620Z,13.74
2023-03-24T07:13:15.358Z,13.72
2023-03-24T07:15:42.672Z,13.67
2023-03-24T07:18:10.886Z,13.66
2023-03-24T07:20:41.723Z,13.66
2023-03-24T07:23:12.938Z,13.66
2023-03-24T07:25:50.235Z,13.70
2023-03-24T07:28:24.405Z,13.70
2023-03-24T07:30:53.929Z,13.70
2023-03-24T07:33:25.043Z,13.69
2023-03-24T07:35:56.333Z,13.78
2023-03-24T07:38:24.052Z,13.96
2023-03-24T07:40:54.600Z,14.19
2023-03-24T07:43:22.173Z,14.14
2023-03-24T07:46:10.216Z,14.15
2023-03-24T07:48:37.716Z,14.09
2023-03-24T07:51:04.535Z,14.11
2023-03-24T07:53:57.091Z,14.37
2023-03-24T07:56:30.323Z,14.41
2023-03-24T07:58:59.012Z,14.11
2023-03-24T08:01:42.314Z,13.19
2023-03-24T08:04:14.349Z,12.87
2023-03-24T08:06:58.808Z,12.77
2023-03-24T08:09:25.702Z,12.48
2023-03-24T08:11:52.548Z,12.38
2023-03-24T08:14:19.323Z,12.56
2023-03-24T08:16:46.773Z,12.40
2023-03-24T08:19:13.865Z,12.13
2023-03-24T08:21:41.011Z,11.95
2023-03-24T08:24:07.893Z,11.85
2023-03-24T08:26:35.553Z,11.88
2023-03-24T08:29:03.310Z,11.59
2023-03-24T08:31:37.022Z,11.33
2023-03-24T08:34:05.084Z,10.89
2023-03-24T08:36:32.162Z,11.43
2023-03-24T08:38:59.967Z,11.44
2023-03-24T08:41:35.261Z,11.16
2023-03-24T08:44:07.250Z,11.20
2023-03-24T08:46:34.822Z,11.13
2023-03-24T08:49:02.679Z,11.17
2023-03-24T08:51:29.780Z,11.06
2023-03-24T08:53:56.481Z,11.12
2023-03-24T08:56:24.020Z,11.15
2023-03-24T08:58:53.646Z,11.04
2023-03-24T09:01:23.016Z,11.18
2023-03-24T09:03:50.559Z,11.22
2023-03-24T09:06:17.449Z,11.21
2023-03-24T09:08:44.187Z,11.19
2023-03-24T09:11:16.670Z,11.13
2023-03-24T09:13:43.984Z,11.10
2023-03-24T09:16:10.753Z,11.16
2023-03-24T09:18:37.992Z,11.24
2023-03-24T09:21:05.192Z,11.28
2023-03-24T09:23:32.043Z,11.21
2023-03-24T09:25:59.376Z,11.18
2023-03-24T09:28:26.545Z,11.21
2023-03-24T09:30:58.219Z,11.26
2023-03-24T09:33:25.452Z,11.16
2023-03-24T09:36:00.065Z,11.17
2023-03-24T09:38:28.159Z,11.20
2023-03-24T09:40:58.092Z,11.35
2023-03-24T09:43:47.205Z,11.46
2023-03-24T09:46:18.843Z,11.42
2023-03-24T09:48:53.394Z,11.46
2023-03-24T09:51:24.810Z,11.32
2023-03-24T09:54:10.377Z,11.15
2023-03-24T09:56:42.580Z,11.23
2023-03-24T09:59:27.102Z,11.28
2023-03-24T10:01:53.789Z,11.20
2023-03-24T10:04:24.445Z,11.23
2023-03-24T10:06:58.658Z,11.23
2023-03-24T10:09:32.201Z,11.27
2023-03-24T10:12:06.651Z,11.30
2023-03-24T10:15:00.977Z,11.51
2023-03-24T10:18:01.906Z,11.53
2023-03-24T10:20:47.225Z,11.48
2023-03-24T10:23:38.224Z,11.57
2023-03-24T10:26:23.244Z,11.86
2023-03-24T10:28:59.366Z,12.23
2023-03-24T10:31:32.923Z,12.79
2023-03-24T10:34:00.172Z,12.53
2023-03-24T10:36:29.037Z,12.51
2023-03-24T10:38:55.866Z,12.72
2023-03-24T10:41:25.744Z,13.16
2023-03-24T10:43:54.314Z,13.06
2023-03-24T10:46:25.232Z,13.55
2023-03-24T10:48:55.295Z,14.14
2023-03-24T10:51:31.837Z,14.06
2023-03-24T10:54:13.562Z,14.37
2023-03-24T10:56:46.944Z,14.73
2023-03-24T10:59:46.070Z,14.14
2023-03-24T11:02:26.167Z,13.94
2023-03-24T11:04:57.882Z,13.75
2023-03-24T11:07:39.404Z,14.81
2023-03-24T11:10:11.909Z,14.52
2023-03-24T11:12:41.019Z,14.45
2023-03-24T11:15:21.951Z,14.96
2023-03-24T11:17:56.952Z,15.56
2023-03-24T11:20:35.635Z,15.42
2023-03-24T11:23:06.750Z,14.77
2023-03-24T11:25:37.254Z,14.96
2023-03-24T11:28:09.180Z,15.78
2023-03-24T11:30:48.494Z,16.47
2023-03-24T11:33:35.891Z,15.60
2023-03-24T11:36:26.444Z,15.97
2023-03-24T11:39:16.126Z,16.70
2023-03-24T11:42:05.650Z,17.24
2023-03-24T11:44:38.261Z,17.78
2023-03-24T11:47:26.727Z,18.10
2023-03-24T11:50:14.393Z,17.15
2023-03-24T11:52:49.790Z,17.22
2023-03-24T11:55:48.634Z,17.44
2023-03-24T11:58:28.215Z,17.76
2023-03-24T12:01:07.711Z,18.21
2023-03-24T12:03:59.528Z,17.73
2023-03-24T12:06:45.113Z,17.63
2023-03-24T12:09:45.472Z,18.22
2023-03-24T12:12:43.346Z,17.95
2023-03-24T12:15:26.739Z,18.83
2023-03-24T12:18:16.509Z,18.04
2023-03-24T12:20:48.874Z,17.56
2023-03-24T12:23:26.379Z,17.38
2023-03-24T12:26:14.456Z,17.57
2023-03-24T12:29:10.802Z,17.90
2023-03-24T12:32:06.954Z,18.01
2023-03-24T12:35:00.502Z,17.24
2023-03-24T12:37:52.712Z,17.73
2023-03-24T12:40:38.984Z,17.38
2023-03-24T12:43:27.606Z,17.55
2023-03-24T12:45:56.920Z,17.03
2023-03-24T12:48:56.289Z,16.60
2023-03-24T12:51:47.683Z,16.17
2023-03-24T12:54:26.246Z,17.35
2023-03-24T12:57:02.269Z,17.57
2023-03-24T12:59:39.018Z,17.92
2023-03-24T13:02:08.792Z,18.12
2023-03-24T13:04:41.011Z,17.67
2023-03-24T13:07:18.024Z,17.22
2023-03-24T13:10:00.342Z,17.16
2023-03-24T13:13:05.911Z,17.15
2023-03-24T13:15:41.795Z,18.56
2023-03-24T13:18:11.803Z,18.89
2023-03-24T13:20:46.952Z,19.13
2023-03-24T13:23:41.965Z,18.73
2023-03-24T13:26:22.365Z,18.55
2023-03-24T13:29:21.883Z,17.75
2023-03-24T13:32:05.500Z,17.58
2023-03-24T13:34:38.956Z,17.96
2023-03-24T13:37:11.540Z,18.04
2023-03-24T13:39:39.186Z,17.48
2023-03-24T13:42:06.369Z,17.96
2023-03-24T13:44:41.890Z,17.61
2023-03-24T13:47:17.107Z,17.92
2023-03-24T13:50:05.488Z,17.88
2023-03-24T13:52:45.232Z,17.78
2023-03-24T13:55:22.489Z,17.02
2023-03-24T13:58:04.278Z,17.12
2023-03-24T14:00:31.504Z,17.18
2023-03-24T14:03:14.420Z,16.93
2023-03-24T14:05:58.772Z,16.78
2023-03-24T14:08:43.960Z,16.88
2023-03-24T14:11:32.542Z,17.65
2023-03-24T14:14:20.420Z,16.98
2023-03-24T14:17:08.651Z,17.01
2023-03-24T14:19:39.563Z,16.78
2023-03-24T14:22:21.987Z,16.77
2023-03-24T14:25:02.879Z,17.09
2023-03-24T14:27:41.166Z,17.36
2023-03-24T14:30:11.321Z,17.05
2023-03-24T14:32:45.237Z,16.81
2023-03-24T14:35:26.042Z,17.10
2023-03-24T14:37:56.706Z,17.65
2023-03-24T14:40:29.371Z,17.41
2023-03-24T14:43:02.738Z,16.85
2023-03-24T14:46:11.704Z,17.14
2023-03-24T14:48:41.717Z,17.32
2023-03-24T14:51:38.404Z,17.32
2023-03-24T14:54:14.275Z,17.79
2023-03-24T14:56:43.485Z,17.47
2023-03-24T14:59:29.465Z,17.27
2023-03-24T15:02:06.342Z,16.90
2023-03-24T15:04:33.800Z,16.90
2023-03-24T15:07:04.234Z,16.69
2023-03-24T15:09:30.982Z,16.57
2023-03-24T15:12:00.091Z,16.99
2023-03-24T15:14:27.549Z,16.65
2023-03-24T15:17:03.482Z,16.64
2023-03-24T15:19:31.491Z,16.90
2023-03-24T15:22:04.555Z,17.67
2023-03-24T15:24:36.593Z,17.10
2023-03-24T15:27:06.736Z,16.94
2023-03-24T15:29:41.355Z,16.63
2023-03-24T15:32:18.017Z,16.54
2023-03-24T15:34:58.984Z,16.73
2023-03-24T15:37:32.046Z,16.72
2023-03-24T15:40:12.463Z,16.92
2023-03-24T15:42:44.128Z,16.38
2023-03-24T15:45:30.572Z,16.67
2023-03-24T15:47:59.475Z,16.40
2023-03-24T15:50:38.363Z,16.51
2023-03-24T15:53:14.026Z,16.04
2023-03-24T15:55:43.669Z,15.96
2023-03-24T15:58:22.036Z,15.71
2023-03-24T16:00:53.367Z,15.63
2023-03-24T16:03:48.564Z,15.80
2023-03-24T16:06:16.811Z,15.46
2023-03-24T16:08:43.852Z,15.89
2023-03-24T16:11:13.588Z,15.85
2023-03-24T16:13:42.705Z,15.84
2023-03-24T16:16:18.552Z,15.82
2023-03-24T16:18:48.275Z,15.80
2023-03-24T16:21:17.598Z,15.64
2023-03-24T16:23:45.745Z,15.45
2023-03-24T16:26:23.551Z,15.32
2023-03-24T16:28:51.803Z,15.27
2023-03-24T16:31:33.687Z,15.26
2023-03-24T16:34:00.546Z,15.18
2023-03-24T16:36:27.944Z,15.10
2023-03-24T16:38:56.387Z,15.14
2023-03-24T16:41:23.568Z,14.83
2023-03-24T16:43:50.638Z,14.73
2023-03-24T16:46:26.633Z,14.64
2023-03-24T16:48:54.058Z,14.64
2023-03-24T16:51:20.839Z,14.66
2023-03-24T16:53:48.141Z,14.43
2023-03-24T16:56:17.675Z,14.29
2023-03-24T16:58:45.607Z,14.44
2023-03-24T17:01:27.248Z,14.37
2023-03-24T17:03:59.517Z,14.36
2023-03-24T17:06:28.791Z,14.28
2023-03-24T17:08:56.014Z,14.19
2023-03-24T17:11:32.424Z,14.01
2023-03-24T17:14:04.680Z,13.57
2023-03-24T17:16:37.110Z,13.52
2023-03-24T17:19:07.153Z,13.79
2023-03-24T17:21:36.858Z,13.65
2023-03-24T17:24:04.118Z,13.36
2023-03-24T17:26:32.042Z,13.08
2023-03-24T17:28:59.070Z,12.94
2023-03-24T17:31:26.450Z,12.82
2023-03-24T17:33:53.396Z,12.81
2023-03-24T17:36:20.191Z,12.80
2023-03-24T17:38:49.818Z,12.91
2023-03-24T17:41:16.628Z,12.69
2023-03-24T17:43:45.979Z,12.84
2023-03-24T17:46:13.190Z,12.67
2023-03-24T17:48:39.948Z,12.67
2023-03-24T17:51:06.958Z,12.42
2023-03-24T17:53:33.841Z,12.41
2023-03-24T17:56:05.906Z,12.31
2023-03-24T17:58:35.901Z,12.23
2023-03-24T18:01:08.143Z,12.35
2023-03-24T18:03:38.207Z,12.40
2023-03-24T18:06:07.639Z,12.43
2023-03-24T18:08:35.934Z,12.28
2023-03-24T18:11:04.926Z,12.31
2023-03-24T18:13:31.776Z,12.41
2023-03-24T18:16:04.041Z,12.49
2023-03-24T18:18:38.532Z,12.39
2023-03-24T18:21:07.391Z,11.52
2023-03-24T18:23:35.437Z,11.00
2023-03-24T18:26:08.205Z,11.16
2023-03-24T18:28:37.492Z,10.73
2023-03-24T18:31:15.930Z,10.40
2023-03-24T18:33:46.173Z,10.23
2023-03-24T18:36:16.557Z,9.79
2023-03-24T18:38:43.713Z,9.70
2023-03-24T18:41:12.992Z,9.74
2023-03-24T18:43:47.514Z,9.67
2023-03-24T18:46:14.744Z,10.10
2023-03-24T18:48:42.877Z,9.79
2023-03-24T18:51:11.308Z,9.81
2023-03-24T18:53:38.168Z,9.73
2023-03-24T18:56:06.238Z,9.23
2023-03-24T18:58:34.105Z,9.55
2023-03-24T19:01:11.726Z,9.19
2023-03-24T19:03:41.157Z,8.86
2023-03-24T19:06:09.646Z,8.79
2023-03-24T19:08:38.389Z,8.52
2023-03-24T19:11:05.620Z,8.85
2023-03-24T19:13:32.369Z,8.78
2023-03-24T19:16:00.348Z,8.58
2023-03-24T19:18:27.397Z,8.60
2023-03-24T19:20:56.216Z,8.64
2023-03-24T19:23:26.653Z,8.56
2023-03-24T19:25:56.455Z,8.79
2023-03-24T19:28:29.259Z,8.78
2023-03-24T19:30:57.357Z,8.66
2023-03-24T19:33:24.084Z,8.85
2023-03-24T19:35:51.782Z,8.95
2023-03-24T19:38:22.225Z,8.95
2023-03-24T19:40:48.903Z,8.80
2023-03-24T19:43:15.582Z,8.75
2023-03-24T19:45:43.125Z,8.77
2023-03-24T19:48:11.069Z,8.74
2023-03-24T19:50:37.903Z,8.63
2023-03-24T19:53:04.769Z,8.58
2023-03-24T19:55:31.648Z,8.53
2023-03-24T19:57:59.705Z,8.57
2023-03-24T20:00:26.595Z,8.84
2023-03-24T20:02:53.690Z,8.74
2023-03-24T20:05:21.048Z,8.73
2023-03-24T20:07:47.841Z,8.68
2023-03-24T20:10:14.634Z,8.52
2023-03-24T20:12:41.437Z,8.52
2023-03-24T20:15:08.687Z,8.63
2023-03-24T20:17:37.697Z,8.55
2023-03-24T20:20:07.561Z,8.92
2023-03-24T20:22:34.917Z,9.07
2023-03-24T20:25:01.597Z,9.24
2023-03-24T20:27:28.400Z,9.13
2023-03-24T20:29:55.630Z,9.22
2023-03-24T20:32:22.438Z,9.12
2023-03-24T20:34:49.422Z,9.17
2023-03-24T20:37:16.315Z,9.08
2023-03-24T20:39:43.808Z,8.98
2023-03-24T20:42:11.439Z,9.07
2023-03-24T20:44:38.209Z,9.02
2023-03-24T20:47:04.890Z,8.98
2023-03-24T20:49:32.576Z,9.00
2023-03-24T20:51:59.439Z,8.94
2023-03-24T20:54:26.524Z,8.86
2023-03-24T20:56:53.313Z,8.80
2023-03-24T20:59:20.085Z,8.87
2023-03-24T21:01:48.751Z,8.80
2023-03-24T21:04:17.907Z,8.83
2023-03-24T21:06:45.268Z,8.79
2023-03-24T21:09:12.279Z,8.79
2023-03-24T21:11:38.959Z,8.72
2023-03-24T21:14:05.716Z,8.82
2023-03-24T21:16:37.676Z,8.72
2023-03-24T21:19:05.177Z,8.65
2023-03-24T21:21:32.435Z,8.70
2023-03-24T21:24:00.568Z,8.66
2023-03-24T21:26:27.836Z,8.63
2023-03-24T21:28:54.677Z,8.57
2023-03-24T21:31:28.970Z,8.63
2023-03-24T21:33:56.825Z,8.56
2023-03-24T21:36:25.472Z,8.47
2023-03-24T21:38:54.250Z,8.52
2023-03-24T21:41:21.412Z,8.63
2023-03-24T21:43:51.328Z,8.48
2023-03-24T21:46:22.098Z,8.46
2023-03-24T21:48:55.707Z,8.34
2023-03-24T21:51:25.897Z,8.36
2023-03-24T21:53:55.876Z,8.47
2023-03-24T21:56:23.436Z,8.33
2023-03-24T21:58:53.111Z,8.24
2023-03-24T22:01:20.228Z,8.26
2023-03-24T22:03:46.977Z,8.21
2023-03-24T22:06:14.349Z,8.17
2023-03-24T22:08:44.149Z,8.16
2023-03-24T22:11:11.656Z,8.19
2023-03-24T22:13:39.596Z,8.15
2023-03-24T22:16:07.164Z,8.10
2023-03-24T22:18:35.438Z,8.14
2023-03-24T22:21:04.586Z,8.13
2023-03-24T22:23:36.795Z,8.20
2023-03-24T22:26:21.859Z,8.21
2023-03-24T22:28:48.558Z,8.12
2023-03-24T22:31:16.836Z,8.20
2023-03-24T22:33:44.694Z,8.12
2023-03-24T22:36:12.101Z,8.12
2023-03-24T22:38:39.305Z,8.10
2023-03-24T22:41:09.577Z,8.26
2023-03-24T22:43:39.627Z,8.16
2023-03-24T22:46:07.017Z,8.29
2023-03-24T22:48:33.935Z,8.28
2023-03-24T22:51:01.127Z,8.25
2023-03-24T22:53:27.895Z,8.19
2023-03-24T22:55:54.679Z,8.21
2023-03-24T22:58:21.653Z,8.18
2023-03-24T23:00:49.846Z,8.13
2023-03-24T23:03:16.991Z,8.17
2023-03-24T23:05:45.843Z,8.10
2023-03-24T23:08:14.639Z,8.01
2023-03-24T23:10:42.879Z,8.01
2023-03-24T23:13:10.745Z,8.01
2023-03-24T23:15:38.735Z,8.05
2023-03-24T23:18:05.978Z,8.03
2023-03-24T23:20:33.172Z,7.97
2023-03-24T23:23:01.384Z,8.04
2023-03-24T23:25:31.267Z,7.93
2023-03-24T23:27:58.883Z,7.96
2023-03-24T23:30:25.991Z,8.00
2023-03-24T23:32:53.556Z,8.00
2023-03-24T23:35:20.481Z,7.85
2023-03-24T23:37:47.205Z,7.85
2023-03-24T23:40:15.747Z,7.78
2023-03-24T23:42:47.378Z,7.79
2023-03-24T23:45:18.262Z,7.82
2023-03-24T23:47:49.528Z,7.84
2023-03-24T23:50:17.802Z,7.78
2023-03-24T23:52:44.550Z,7.80
2023-03-24T23:55:13.382Z,7.67
2023-03-24T23:57:41.802Z,7.66
